sensor_id;sensor_type;location;lat;lon;timestamp;temperature;humidity
52531;DHT22;38441;52.894;6.040;2023-08-30T08:54:04;15.30;99.90
52531;DHT22;38441;52.894;6.040;2023-08-30T08:56:31;15.50;99.90
52531;DHT22;38441;52.894;6.040;2023-08-30T08:58:59;15.20;99.90
52531;DHT22;38441;52.894;6.040;2023-08-30T09:01:25;13.00;99.90
52531;DHT22;38441;52.894;6.040;2023-08-30T09:03:51;17.40;99.90
52531;DHT22;38441;52.894;6.040;2023-08-30T09:06:16;15.20;99.90
52531;DHT22;38441;52.894;6.040;2023-08-30T09:08:42;18.10;99.90
52531;DHT22;38441;52.894;6.040;2023-08-30T09:11:08;16.70;99.90
52531;DHT22;38441;52.894;6.040;2023-08-30T09:13:33;14.30;99.90
52531;DHT22;38441;52.894;6.040;2023-08-30T09:15:59;16.90;99.90
52531;DHT22;38441;52.894;6.040;2023-08-30T09:18:27;15.60;99.90
52531;DHT22;38441;52.894;6.040;2023-08-30T09:20:53;15.20;99.90
52531;DHT22;38441;52.894;6.040;2023-08-30T09:23:21;14.90;99.90
52531;DHT22;38441;52.894;6.040;2023-08-30T09:25:55;13.50;99.90
52531;DHT22;38441;52.894;6.040;2023-08-30T09:40:12;15.40;99.90
52531;DHT22;38441;52.894;6.040;2023-08-30T09:42:41;17.10;99.90
52531;DHT22;38441;52.894;6.040;2023-08-30T09:45:25;17.40;99.90
52531;DHT22;38441;52.894;6.040;2023-08-30T09:47:51;18.10;99.90
52531;DHT22;38441;52.894;6.040;2023-08-30T09:50:20;16.00;99.90
52531;DHT22;38441;52.894;6.040;2023-08-30T09:52:50;16.30;99.90
52531;DHT22;38441;52.894;6.040;2023-08-30T09:55:19;16.80;99.90
52531;DHT22;38441;52.894;6.040;2023-08-30T09:57:48;17.70;99.90
52531;DHT22;38441;52.894;6.040;2023-08-30T10:00:14;17.40;99.90
52531;DHT22;38441;52.894;6.040;2023-08-30T10:02:43;16.10;99.90
52531;DHT22;38441;52.894;6.040;2023-08-30T10:05:12;16.90;99.90
52531;DHT22;38441;52.894;6.040;2023-08-30T10:07:39;17.10;99.90
52531;DHT22;38441;52.894;6.040;2023-08-30T10:10:05;15.90;99.90
52531;DHT22;38441;52.894;6.040;2023-08-30T10:12:34;16.00;99.90
52531;DHT22;38441;52.894;6.040;2023-08-30T10:15:01;18.00;99.90
52531;DHT22;38441;52.894;6.040;2023-08-30T10:17:34;16.00;99.90
52531;DHT22;38441;52.894;6.040;2023-08-30T10:20:07;14.90;99.90
52531;DHT22;38441;52.894;6.040;2023-08-30T10:22:43;16.20;99.90
52531;DHT22;38441;52.894;6.040;2023-08-30T10:25:17;17.30;99.90
52531;DHT22;38441;52.894;6.040;2023-08-30T10:27:50;18.80;99.90
52531;DHT22;38441;52.894;6.040;2023-08-30T10:30:20;17.60;99.90
52531;DHT22;38441;52.894;6.040;2023-08-30T10:32:49;18.50;99.90
52531;DHT22;38441;52.894;6.040;2023-08-30T10:35:19;17.10;99.90
52531;DHT22;38441;52.894;6.040;2023-08-30T10:38:24;17.20;99.90
52531;DHT22;38441;52.894;6.040;2023-08-30T10:41:08;13.90;99.90
52531;DHT22;38441;52.894;6.040;2023-08-30T10:43:40;17.10;99.90
52531;DHT22;38441;52.894;6.040;2023-08-30T10:46:06;17.20;99.90
52531;DHT22;38441;52.894;6.040;2023-08-30T10:48:39;16.90;99.90
52531;DHT22;38441;52.894;6.040;2023-08-30T10:51:19;16.50;99.90
52531;DHT22;38441;52.894;6.040;2023-08-30T10:53:58;16.80;99.90
52531;DHT22;38441;52.894;6.040;2023-08-30T10:56:28;15.80;99.90
52531;DHT22;38441;52.894;6.040;2023-08-30T10:58:54;18.40;99.90
52531;DHT22;38441;52.894;6.040;2023-08-30T11:01:20;17.00;99.90
52531;DHT22;38441;52.894;6.040;2023-08-30T11:03:46;18.30;99.90
52531;DHT22;38441;52.894;6.040;2023-08-30T11:06:15;16.60;99.90
52531;DHT22;38441;52.894;6.040;2023-08-30T11:08:43;17.10;99.90
52531;DHT22;38441;52.894;6.040;2023-08-30T11:11:10;16.70;99.90
52531;DHT22;38441;52.894;6.040;2023-08-30T11:13:39;17.40;99.90
52531;DHT22;38441;52.894;6.040;2023-08-30T11:16:05;14.90;99.90
52531;DHT22;38441;52.894;6.040;2023-08-30T11:18:39;16.70;99.90
52531;DHT22;38441;52.894;6.040;2023-08-30T11:21:08;16.80;99.90
52531;DHT22;38441;52.894;6.040;2023-08-30T11:23:34;17.70;99.90
52531;DHT22;38441;52.894;6.040;2023-08-30T11:26:01;16.00;99.90
52531;DHT22;38441;52.894;6.040;2023-08-30T11:28:29;17.00;99.90
52531;DHT22;38441;52.894;6.040;2023-08-30T11:30:55;15.50;99.90
52531;DHT22;38441;52.894;6.040;2023-08-30T11:33:21;16.80;99.90
52531;DHT22;38441;52.894;6.040;2023-08-30T11:35:51;17.50;99.90
52531;DHT22;38441;52.894;6.040;2023-08-30T11:38:17;16.30;99.90
52531;DHT22;38441;52.894;6.040;2023-08-30T11:40:43;17.20;99.90
52531;DHT22;38441;52.894;6.040;2023-08-30T11:43:10;17.10;99.90
52531;DHT22;38441;52.894;6.040;2023-08-30T11:45:36;16.10;99.90
52531;DHT22;38441;52.894;6.040;2023-08-30T11:48:02;16.50;99.90
52531;DHT22;38441;52.894;6.040;2023-08-30T11:50:28;15.80;99.90
52531;DHT22;38441;52.894;6.040;2023-08-30T11:52:55;16.80;99.90
52531;DHT22;38441;52.894;6.040;2023-08-30T11:55:21;17.00;99.90
52531;DHT22;38441;52.894;6.040;2023-08-30T11:57:50;15.90;99.90
52531;DHT22;38441;52.894;6.040;2023-08-30T12:00:19;16.00;99.90
52531;DHT22;38441;52.894;6.040;2023-08-30T12:02:46;16.70;99.90
52531;DHT22;38441;52.894;6.040;2023-08-30T12:05:12;17.00;99.90
52531;DHT22;38441;52.894;6.040;2023-08-30T12:07:38;16.40;99.90
52531;DHT22;38441;52.894;6.040;2023-08-30T12:10:10;15.90;99.90
52531;DHT22;38441;52.894;6.040;2023-08-30T12:12:36;15.60;99.90
52531;DHT22;38441;52.894;6.040;2023-08-30T12:15:12;16.80;99.90
52531;DHT22;38441;52.894;6.040;2023-08-30T12:17:38;15.60;99.90
52531;DHT22;38441;52.894;6.040;2023-08-30T12:20:03;17.40;99.90
52531;DHT22;38441;52.894;6.040;2023-08-30T12:22:37;15.60;99.90
52531;DHT22;38441;52.894;6.040;2023-08-30T12:25:03;16.80;99.90
52531;DHT22;38441;52.894;6.040;2023-08-30T12:30:05;15.30;99.90
52531;DHT22;38441;52.894;6.040;2023-08-30T12:32:32;15.30;99.90
52531;DHT22;38441;52.894;6.040;2023-08-30T12:34:57;13.50;99.90
52531;DHT22;38441;52.894;6.040;2023-08-30T12:37:24;18.00;99.90
52531;DHT22;38441;52.894;6.040;2023-08-30T12:39:50;18.00;99.90
52531;DHT22;38441;52.894;6.040;2023-08-30T12:42:19;16.70;99.90
52531;DHT22;38441;52.894;6.040;2023-08-30T12:44:56;14.80;99.90
52531;DHT22;38441;52.894;6.040;2023-08-30T12:47:46;16.90;99.90
52531;DHT22;38441;52.894;6.040;2023-08-30T12:51:00;17.40;99.90
52531;DHT22;38441;52.894;6.040;2023-08-30T12:53:31;12.50;99.90
52531;DHT22;38441;52.894;6.040;2023-08-30T12:56:12;17.70;99.90
52531;DHT22;38441;52.894;6.040;2023-08-30T12:59:02;17.10;99.90
52531;DHT22;38441;52.894;6.040;2023-08-30T13:01:28;16.30;99.90
52531;DHT22;38441;52.894;6.040;2023-08-30T13:03:55;15.90;99.90
52531;DHT22;38441;52.894;6.040;2023-08-30T13:06:27;16.40;99.90
52531;DHT22;38441;52.894;6.040;2023-08-30T13:09:02;17.20;99.90
52531;DHT22;38441;52.894;6.040;2023-08-30T13:12:15;17.40;99.90
52531;DHT22;38441;52.894;6.040;2023-08-30T13:15:14;17.60;99.90
52531;DHT22;38441;52.894;6.040;2023-08-30T13:17:43;15.30;99.90
52531;DHT22;38441;52.894;6.040;2023-08-30T13:28:32;16.10;99.90
52531;DHT22;38441;52.894;6.040;2023-08-30T13:41:27;16.40;99.90
52531;DHT22;38441;52.894;6.040;2023-08-30T13:43:57;15.90;99.90
52531;DHT22;38441;52.894;6.040;2023-08-30T13:46:31;15.80;99.90
52531;DHT22;38441;52.894;6.040;2023-08-30T13:49:00;16.70;99.90
52531;DHT22;38441;52.894;6.040;2023-08-30T13:51:26;18.50;99.90
52531;DHT22;38441;52.894;6.040;2023-08-30T13:53:53;18.30;99.90
52531;DHT22;38441;52.894;6.040;2023-08-30T13:56:47;14.80;99.90
52531;DHT22;38441;52.894;6.040;2023-08-30T13:59:26;18.50;99.90
52531;DHT22;38441;52.894;6.040;2023-08-30T14:02:04;14.60;99.90
52531;DHT22;38441;52.894;6.040;2023-08-30T14:04:32;17.50;99.90
52531;DHT22;38441;52.894;6.040;2023-08-30T14:07:25;18.20;99.90
52531;DHT22;38441;52.894;6.040;2023-08-30T14:09:59;19.20;99.90
52531;DHT22;38441;52.894;6.040;2023-08-30T14:12:30;18.40;99.90
52531;DHT22;38441;52.894;6.040;2023-08-30T14:14:59;17.70;99.90
52531;DHT22;38441;52.894;6.040;2023-08-30T14:17:24;17.90;99.90
52531;DHT22;38441;52.894;6.040;2023-08-30T14:19:50;19.00;99.90
52531;DHT22;38441;52.894;6.040;2023-08-30T14:22:24;17.80;99.90
52531;DHT22;38441;52.894;6.040;2023-08-30T14:24:50;17.30;99.90
52531;DHT22;38441;52.894;6.040;2023-08-30T14:27:16;18.70;99.90
52531;DHT22;38441;52.894;6.040;2023-08-30T14:29:48;18.90;99.90
52531;DHT22;38441;52.894;6.040;2023-08-30T14:32:14;18.60;99.90
52531;DHT22;38441;52.894;6.040;2023-08-30T14:34:40;18.90;99.90
52531;DHT22;38441;52.894;6.040;2023-08-30T14:37:05;18.00;99.90
52531;DHT22;38441;52.894;6.040;2023-08-30T14:39:31;18.20;99.90
52531;DHT22;38441;52.894;6.040;2023-08-30T14:41:56;19.10;99.90
52531;DHT22;38441;52.894;6.040;2023-08-30T14:44:22;18.60;99.90
52531;DHT22;38441;52.894;6.040;2023-08-30T14:46:51;18.40;99.90
52531;DHT22;38441;52.894;6.040;2023-08-30T14:49:17;18.10;99.90
52531;DHT22;38441;52.894;6.040;2023-08-30T14:51:42;20.00;99.90
52531;DHT22;38441;52.894;6.040;2023-08-30T14:54:08;18.20;99.90
52531;DHT22;38441;52.894;6.040;2023-08-30T14:56:33;19.30;99.90
52531;DHT22;38441;52.894;6.040;2023-08-30T14:58:59;19.30;99.90
52531;DHT22;38441;52.894;6.040;2023-08-30T15:01:25;18.70;99.90
52531;DHT22;38441;52.894;6.040;2023-08-30T15:03:50;17.50;99.90
52531;DHT22;38441;52.894;6.040;2023-08-30T15:06:16;19.00;99.90
52531;DHT22;38441;52.894;6.040;2023-08-30T15:08:41;18.40;99.90
52531;DHT22;38441;52.894;6.040;2023-08-30T15:11:08;18.20;99.90
52531;DHT22;38441;52.894;6.040;2023-08-30T15:13:34;18.10;99.90
52531;DHT22;38441;52.894;6.040;2023-08-30T15:16:00;17.70;99.90
52531;DHT22;38441;52.894;6.040;2023-08-30T15:18:26;18.00;99.90
52531;DHT22;38441;52.894;6.040;2023-08-30T15:20:52;16.60;99.90
52531;DHT22;38441;52.894;6.040;2023-08-30T15:23:19;18.80;99.90
52531;DHT22;38441;52.894;6.040;2023-08-30T15:25:45;18.70;99.90
52531;DHT22;38441;52.894;6.040;2023-08-30T15:28:15;17.70;99.90
52531;DHT22;38441;52.894;6.040;2023-08-30T15:30:44;17.80;99.90
52531;DHT22;38441;52.894;6.040;2023-08-30T15:33:10;17.80;99.90
52531;DHT22;38441;52.894;6.040;2023-08-30T15:35:39;18.00;99.90
52531;DHT22;38441;52.894;6.040;2023-08-30T15:38:05;18.50;99.90
52531;DHT22;38441;52.894;6.040;2023-08-30T15:40:31;18.20;99.90
52531;DHT22;38441;52.894;6.040;2023-08-30T15:42:58;18.70;99.90
52531;DHT22;38441;52.894;6.040;2023-08-30T15:45:24;18.80;99.90
52531;DHT22;38441;52.894;6.040;2023-08-30T15:47:50;18.20;99.90
52531;DHT22;38441;52.894;6.040;2023-08-30T15:50:15;18.10;99.90
52531;DHT22;38441;52.894;6.040;2023-08-30T15:52:41;17.10;99.90
52531;DHT22;38441;52.894;6.040;2023-08-30T15:55:07;18.60;99.90
52531;DHT22;38441;52.894;6.040;2023-08-30T15:57:32;17.20;99.90
52531;DHT22;38441;52.894;6.040;2023-08-30T15:59:58;17.80;99.90
52531;DHT22;38441;52.894;6.040;2023-08-30T16:02:24;18.60;99.90
52531;DHT22;38441;52.894;6.040;2023-08-30T16:04:49;17.00;99.90
52531;DHT22;38441;52.894;6.040;2023-08-30T16:07:15;17.70;99.90
52531;DHT22;38441;52.894;6.040;2023-08-30T16:09:40;17.30;99.90
52531;DHT22;38441;52.894;6.040;2023-08-30T16:12:06;17.10;99.90
52531;DHT22;38441;52.894;6.040;2023-08-30T16:14:32;16.80;99.90
52531;DHT22;38441;52.894;6.040;2023-08-30T16:16:57;17.60;99.90
52531;DHT22;38441;52.894;6.040;2023-08-30T16:19:23;17.50;99.90
52531;DHT22;38441;52.894;6.040;2023-08-30T16:21:50;17.60;99.90
52531;DHT22;38441;52.894;6.040;2023-08-30T16:24:20;17.80;99.90
52531;DHT22;38441;52.894;6.040;2023-08-30T16:26:45;18.00;99.90
52531;DHT22;38441;52.894;6.040;2023-08-30T16:29:12;17.10;99.90
52531;DHT22;38441;52.894;6.040;2023-08-30T16:31:37;17.70;99.90
52531;DHT22;38441;52.894;6.040;2023-08-30T16:34:03;17.40;99.90
52531;DHT22;38441;52.894;6.040;2023-08-30T16:36:28;17.60;99.90
52531;DHT22;38441;52.894;6.040;2023-08-30T16:38:54;17.40;99.90
52531;DHT22;38441;52.894;6.040;2023-08-30T16:41:20;18.20;99.90
52531;DHT22;38441;52.894;6.040;2023-08-30T16:43:45;18.10;99.90
52531;DHT22;38441;52.894;6.040;2023-08-30T16:46:11;17.60;99.90
52531;DHT22;38441;52.894;6.040;2023-08-30T16:48:37;19.60;99.90
52531;DHT22;38441;52.894;6.040;2023-08-30T16:51:03;17.40;99.90
52531;DHT22;38441;52.894;6.040;2023-08-30T16:53:32;17.90;99.90
52531;DHT22;38441;52.894;6.040;2023-08-30T16:56:02;16.50;99.90
52531;DHT22;38441;52.894;6.040;2023-08-30T16:58:29;16.20;99.90
52531;DHT22;38441;52.894;6.040;2023-08-30T17:00:55;18.20;99.90
52531;DHT22;38441;52.894;6.040;2023-08-30T17:03:20;17.20;99.90
52531;DHT22;38441;52.894;6.040;2023-08-30T17:05:46;16.90;99.90
52531;DHT22;38441;52.894;6.040;2023-08-30T17:08:12;16.20;99.90
52531;DHT22;38441;52.894;6.040;2023-08-30T17:10:37;16.60;99.90
52531;DHT22;38441;52.894;6.040;2023-08-30T17:13:03;18.60;99.90
52531;DHT22;38441;52.894;6.040;2023-08-30T17:15:29;17.10;99.90
52531;DHT22;38441;52.894;6.040;2023-08-30T17:17:54;17.60;99.90
52531;DHT22;38441;52.894;6.040;2023-08-30T17:20:20;17.90;99.90
52531;DHT22;38441;52.894;6.040;2023-08-30T17:22:46;18.00;99.90
52531;DHT22;38441;52.894;6.040;2023-08-30T17:25:11;16.80;99.90
52531;DHT22;38441;52.894;6.040;2023-08-30T17:27:37;17.10;99.90
52531;DHT22;38441;52.894;6.040;2023-08-30T17:30:04;16.60;99.90
52531;DHT22;38441;52.894;6.040;2023-08-30T17:32:29;15.80;99.90
52531;DHT22;38441;52.894;6.040;2023-08-30T17:34:56;17.60;99.90
52531;DHT22;38441;52.894;6.040;2023-08-30T17:37:22;16.50;99.90
52531;DHT22;38441;52.894;6.040;2023-08-30T17:39:47;16.10;99.90
52531;DHT22;38441;52.894;6.040;2023-08-30T17:42:13;17.30;99.90
52531;DHT22;38441;52.894;6.040;2023-08-30T17:44:39;16.40;99.90
52531;DHT22;38441;52.894;6.040;2023-08-30T17:47:07;16.50;99.90
52531;DHT22;38441;52.894;6.040;2023-08-30T17:49:33;16.50;99.90
52531;DHT22;38441;52.894;6.040;2023-08-30T17:51:59;16.50;99.90
52531;DHT22;38441;52.894;6.040;2023-08-30T17:54:24;16.50;99.90
52531;DHT22;38441;52.894;6.040;2023-08-30T17:56:50;16.50;99.90
52531;DHT22;38441;52.894;6.040;2023-08-30T17:59:17;16.60;99.90
52531;DHT22;38441;52.894;6.040;2023-08-30T18:01:45;16.90;99.90
52531;DHT22;38441;52.894;6.040;2023-08-30T18:04:12;18.00;99.90
52531;DHT22;38441;52.894;6.040;2023-08-30T18:06:38;16.20;99.90
52531;DHT22;38441;52.894;6.040;2023-08-30T18:09:04;16.90;99.90
52531;DHT22;38441;52.894;6.040;2023-08-30T18:11:30;15.50;99.90
52531;DHT22;38441;52.894;6.040;2023-08-30T18:13:55;16.50;99.90
52531;DHT22;38441;52.894;6.040;2023-08-30T18:16:21;17.70;99.90
52531;DHT22;38441;52.894;6.040;2023-08-30T18:18:47;16.30;99.90
52531;DHT22;38441;52.894;6.040;2023-08-30T18:21:13;16.30;99.90
52531;DHT22;38441;52.894;6.040;2023-08-30T18:23:43;16.40;99.90
52531;DHT22;38441;52.894;6.040;2023-08-30T18:26:11;16.30;99.90
52531;DHT22;38441;52.894;6.040;2023-08-30T18:28:36;17.30;99.90
52531;DHT22;38441;52.894;6.040;2023-08-30T18:31:02;16.70;99.90
52531;DHT22;38441;52.894;6.040;2023-08-30T18:33:28;16.90;99.90
52531;DHT22;38441;52.894;6.040;2023-08-30T18:35:53;17.40;99.90
52531;DHT22;38441;52.894;6.040;2023-08-30T18:38:19;15.90;99.90
52531;DHT22;38441;52.894;6.040;2023-08-30T18:40:45;16.00;99.90
52531;DHT22;38441;52.894;6.040;2023-08-30T18:43:10;15.70;99.90
52531;DHT22;38441;52.894;6.040;2023-08-30T18:45:44;16.10;99.90
52531;DHT22;38441;52.894;6.040;2023-08-30T18:48:10;16.00;99.90
52531;DHT22;38441;52.894;6.040;2023-08-30T18:50:40;14.90;99.90
52531;DHT22;38441;52.894;6.040;2023-08-30T18:53:05;15.80;99.90
52531;DHT22;38441;52.894;6.040;2023-08-30T18:55:31;16.00;99.90
52531;DHT22;38441;52.894;6.040;2023-08-30T18:57:58;14.10;99.90
52531;DHT22;38441;52.894;6.040;2023-08-30T19:00:24;15.40;99.90
52531;DHT22;38441;52.894;6.040;2023-08-30T19:02:49;15.30;99.90
52531;DHT22;38441;52.894;6.040;2023-08-30T19:05:15;15.80;99.90
52531;DHT22;38441;52.894;6.040;2023-08-30T19:07:41;14.50;99.90
52531;DHT22;38441;52.894;6.040;2023-08-30T19:10:08;16.00;99.90
52531;DHT22;38441;52.894;6.040;2023-08-30T19:12:34;14.60;99.90
52531;DHT22;38441;52.894;6.040;2023-08-30T19:14:59;16.50;99.90
52531;DHT22;38441;52.894;6.040;2023-08-30T19:17:25;16.60;99.90
52531;DHT22;38441;52.894;6.040;2023-08-30T19:19:51;15.60;99.90
52531;DHT22;38441;52.894;6.040;2023-08-30T19:22:16;15.90;99.90
52531;DHT22;38441;52.894;6.040;2023-08-30T19:24:44;15.50;99.90
52531;DHT22;38441;52.894;6.040;2023-08-30T19:27:10;15.80;99.90
52531;DHT22;38441;52.894;6.040;2023-08-30T19:29:36;16.20;99.90
52531;DHT22;38441;52.894;6.040;2023-08-30T19:32:01;15.40;99.90
52531;DHT22;38441;52.894;6.040;2023-08-30T19:34:27;15.90;99.90
52531;DHT22;38441;52.894;6.040;2023-08-30T19:36:53;15.10;99.90
52531;DHT22;38441;52.894;6.040;2023-08-30T19:39:18;16.60;99.90
52531;DHT22;38441;52.894;6.040;2023-08-30T19:41:45;15.50;99.90
52531;DHT22;38441;52.894;6.040;2023-08-30T19:44:11;14.40;99.90
52531;DHT22;38441;52.894;6.040;2023-08-30T19:46:36;15.60;99.90
52531;DHT22;38441;52.894;6.040;2023-08-30T19:49:02;15.50;99.90
52531;DHT22;38441;52.894;6.040;2023-08-30T19:51:27;14.30;99.90
52531;DHT22;38441;52.894;6.040;2023-08-30T19:53:53;15.20;99.90
52531;DHT22;38441;52.894;6.040;2023-08-30T19:56:19;14.90;99.90
52531;DHT22;38441;52.894;6.040;2023-08-30T19:58:45;15.00;99.90
52531;DHT22;38441;52.894;6.040;2023-08-30T20:01:12;14.80;99.90
52531;DHT22;38441;52.894;6.040;2023-08-30T20:03:38;15.10;99.90
52531;DHT22;38441;52.894;6.040;2023-08-30T20:06:04;12.50;99.90
52531;DHT22;38441;52.894;6.040;2023-08-30T20:08:29;15.20;99.90
52531;DHT22;38441;52.894;6.040;2023-08-30T20:11:04;14.50;99.90
52531;DHT22;38441;52.894;6.040;2023-08-30T20:13:30;14.60;99.90
52531;DHT22;38441;52.894;6.040;2023-08-30T20:15:59;14.80;99.90
52531;DHT22;38441;52.894;6.040;2023-08-30T20:18:25;15.20;99.90
52531;DHT22;38441;52.894;6.040;2023-08-30T20:20:50;13.70;99.90
52531;DHT22;38441;52.894;6.040;2023-08-30T20:23:16;14.90;99.90
52531;DHT22;38441;52.894;6.040;2023-08-30T20:25:43;14.70;99.90
52531;DHT22;38441;52.894;6.040;2023-08-30T20:28:09;14.70;99.90
52531;DHT22;38441;52.894;6.040;2023-08-30T20:30:35;14.70;99.90
52531;DHT22;38441;52.894;6.040;2023-08-30T20:33:00;14.70;99.90
52531;DHT22;38441;52.894;6.040;2023-08-30T20:35:26;14.50;99.90
52531;DHT22;38441;52.894;6.040;2023-08-30T20:37:52;14.90;99.90
52531;DHT22;38441;52.894;6.040;2023-08-30T20:40:18;15.10;99.90
52531;DHT22;38441;52.894;6.040;2023-08-30T20:42:44;15.50;99.90
52531;DHT22;38441;52.894;6.040;2023-08-30T20:45:10;15.00;99.90
52531;DHT22;38441;52.894;6.040;2023-08-30T20:47:36;14.30;99.90
52531;DHT22;38441;52.894;6.040;2023-08-30T20:50:03;14.30;99.90
52531;DHT22;38441;52.894;6.040;2023-08-30T20:52:29;13.30;99.90
52531;DHT22;38441;52.894;6.040;2023-08-30T20:54:54;14.60;99.90
52531;DHT22;38441;52.894;6.040;2023-08-30T20:57:22;14.70;99.90
52531;DHT22;38441;52.894;6.040;2023-08-30T20:59:48;14.40;99.90
52531;DHT22;38441;52.894;6.040;2023-08-30T21:02:14;15.40;99.90
52531;DHT22;38441;52.894;6.040;2023-08-30T21:04:39;14.20;99.90
52531;DHT22;38441;52.894;6.040;2023-08-30T21:07:05;14.00;99.90
52531;DHT22;38441;52.894;6.040;2023-08-30T21:09:30;13.90;99.90
52531;DHT22;38441;52.894;6.040;2023-08-30T21:11:56;14.00;99.90
52531;DHT22;38441;52.894;6.040;2023-08-30T21:14:25;14.70;99.90
52531;DHT22;38441;52.894;6.040;2023-08-30T21:16:50;14.20;99.90
52531;DHT22;38441;52.894;6.040;2023-08-30T21:19:16;14.70;99.90
52531;DHT22;38441;52.894;6.040;2023-08-30T21:21:42;14.20;99.90
52531;DHT22;38441;52.894;6.040;2023-08-30T21:24:14;14.30;99.90
52531;DHT22;38441;52.894;6.040;2023-08-30T21:26:39;13.90;99.90
52531;DHT22;38441;52.894;6.040;2023-08-30T21:29:05;14.60;99.90
52531;DHT22;38441;52.894;6.040;2023-08-30T21:31:30;13.80;99.90
52531;DHT22;38441;52.894;6.040;2023-08-30T21:33:56;14.20;99.90
52531;DHT22;38441;52.894;6.040;2023-08-30T21:36:22;14.10;99.90
52531;DHT22;38441;52.894;6.040;2023-08-30T21:38:48;13.60;99.90
52531;DHT22;38441;52.894;6.040;2023-08-30T21:41:14;14.60;99.90
52531;DHT22;38441;52.894;6.040;2023-08-30T21:43:41;13.90;99.90
52531;DHT22;38441;52.894;6.040;2023-08-30T21:46:06;14.20;99.90
52531;DHT22;38441;52.894;6.040;2023-08-30T21:48:32;14.60;99.90
52531;DHT22;38441;52.894;6.040;2023-08-30T21:50:58;13.80;99.90
52531;DHT22;38441;52.894;6.040;2023-08-30T21:53:24;12.80;99.90
52531;DHT22;38441;52.894;6.040;2023-08-30T21:55:49;14.10;99.90
52531;DHT22;38441;52.894;6.040;2023-08-30T21:58:15;14.10;99.90
52531;DHT22;38441;52.894;6.040;2023-08-30T22:00:41;14.00;99.90
52531;DHT22;38441;52.894;6.040;2023-08-30T22:03:06;14.20;99.90
52531;DHT22;38441;52.894;6.040;2023-08-30T22:05:32;13.80;99.90
52531;DHT22;38441;52.894;6.040;2023-08-30T22:07:59;14.80;99.90
52531;DHT22;38441;52.894;6.040;2023-08-30T22:10:24;14.00;99.90
52531;DHT22;38441;52.894;6.040;2023-08-30T22:12:50;14.90;99.90
52531;DHT22;38441;52.894;6.040;2023-08-30T22:15:16;14.20;99.90
52531;DHT22;38441;52.894;6.040;2023-08-30T22:17:51;14.50;99.90
52531;DHT22;38441;52.894;6.040;2023-08-30T22:20:17;14.00;99.90
52531;DHT22;38441;52.894;6.040;2023-08-30T22:22:46;13.80;99.90
52531;DHT22;38441;52.894;6.040;2023-08-30T22:25:13;13.70;99.90
52531;DHT22;38441;52.894;6.040;2023-08-30T22:27:40;13.80;99.90
52531;DHT22;38441;52.894;6.040;2023-08-30T22:30:07;13.80;99.90
52531;DHT22;38441;52.894;6.040;2023-08-30T22:32:37;13.00;99.90
52531;DHT22;38441;52.894;6.040;2023-08-30T22:35:04;14.20;99.90
52531;DHT22;38441;52.894;6.040;2023-08-30T22:37:31;12.90;99.90
52531;DHT22;38441;52.894;6.040;2023-08-30T22:39:57;14.20;99.90
52531;DHT22;38441;52.894;6.040;2023-08-30T22:42:23;11.50;99.90
52531;DHT22;38441;52.894;6.040;2023-08-30T22:44:48;13.70;99.90
52531;DHT22;38441;52.894;6.040;2023-08-30T22:47:15;13.90;99.90
52531;DHT22;38441;52.894;6.040;2023-08-30T22:49:41;13.80;99.90
52531;DHT22;38441;52.894;6.040;2023-08-30T22:52:07;13.80;99.90
52531;DHT22;38441;52.894;6.040;2023-08-30T22:54:32;14.00;99.90
52531;DHT22;38441;52.894;6.040;2023-08-30T22:56:58;13.70;99.90
52531;DHT22;38441;52.894;6.040;2023-08-30T22:59:26;13.90;99.90
52531;DHT22;38441;52.894;6.040;2023-08-30T23:01:53;13.60;99.90
52531;DHT22;38441;52.894;6.040;2023-08-30T23:04:18;14.00;99.90
52531;DHT22;38441;52.894;6.040;2023-08-30T23:06:44;13.60;99.90
52531;DHT22;38441;52.894;6.040;2023-08-30T23:09:10;13.70;99.90
52531;DHT22;38441;52.894;6.040;2023-08-30T23:11:37;13.50;99.90
52531;DHT22;38441;52.894;6.040;2023-08-30T23:14:06;13.50;99.90
52531;DHT22;38441;52.894;6.040;2023-08-30T23:16:31;13.30;99.90
52531;DHT22;38441;52.894;6.040;2023-08-30T23:18:57;14.20;99.90
52531;DHT22;38441;52.894;6.040;2023-08-30T23:21:23;13.50;99.90
52531;DHT22;38441;52.894;6.040;2023-08-30T23:23:49;13.50;99.90
52531;DHT22;38441;52.894;6.040;2023-08-30T23:26:15;12.90;99.90
52531;DHT22;38441;52.894;6.040;2023-08-30T23:28:41;13.50;99.90
52531;DHT22;38441;52.894;6.040;2023-08-30T23:31:10;13.40;99.90
52531;DHT22;38441;52.894;6.040;2023-08-30T23:33:36;13.20;99.90
52531;DHT22;38441;52.894;6.040;2023-08-30T23:36:02;13.60;99.90
52531;DHT22;38441;52.894;6.040;2023-08-30T23:38:28;12.70;99.90
52531;DHT22;38441;52.894;6.040;2023-08-30T23:40:53;14.10;99.90
52531;DHT22;38441;52.894;6.040;2023-08-30T23:43:19;13.00;99.90
52531;DHT22;38441;52.894;6.040;2023-08-30T23:45:45;13.60;99.90
52531;DHT22;38441;52.894;6.040;2023-08-30T23:48:16;13.40;99.90
52531;DHT22;38441;52.894;6.040;2023-08-30T23:50:42;14.00;99.90
52531;DHT22;38441;52.894;6.040;2023-08-30T23:53:10;13.60;99.90
52531;DHT22;38441;52.894;6.040;2023-08-30T23:55:36;13.40;99.90
52531;DHT22;38441;52.894;6.040;2023-08-30T23:58:02;13.70;99.90
